createdAt,value
2019-02-05T00:00:14.358Z,-5.41
2019-02-05T00:05:33.228Z,-5.49
2019-02-05T00:10:50.873Z,-5.42
2019-02-05T00:16:08.175Z,-5.50
2019-02-05T00:21:25.877Z,-5.63
2019-02-05T00:26:43.723Z,-5.64
2019-02-05T00:32:00.989Z,-5.74
2019-02-05T00:37:18.321Z,-5.72
2019-02-05T00:42:35.986Z,-5.76
2019-02-05T00:47:53.345Z,-5.98
2019-02-05T00:53:10.935Z,-5.89
2019-02-05T00:58:28.411Z,-5.81
2019-02-05T01:03:46.136Z,-6.03
2019-02-05T01:09:04.942Z,-6.01
2019-02-05T01:14:25.614Z,-5.87
2019-02-05T01:19:43.244Z,-5.88
2019-02-05T01:25:00.538Z,-6.04
2019-02-05T01:30:18.593Z,-6.04
2019-02-05T01:35:36.186Z,-6.14
2019-02-05T01:40:53.383Z,-6.17
2019-02-05T01:46:10.956Z,-6.10
2019-02-05T01:51:28.613Z,-6.16
2019-02-05T01:56:45.980Z,-6.09
2019-02-05T02:02:03.096Z,-6.13
2019-02-05T02:07:20.670Z,-6.32
2019-02-05T02:12:38.070Z,-6.32
2019-02-05T02:17:55.692Z,-6.32
2019-02-05T02:23:13.648Z,-6.32
2019-02-05T02:28:31.421Z,-6.48
2019-02-05T02:33:48.687Z,-6.29
2019-02-05T02:39:06.700Z,-6.30
2019-02-05T02:44:24.129Z,-6.25
2019-02-05T02:49:41.666Z,-6.09
2019-02-05T02:54:59.144Z,-5.86
2019-02-05T03:00:17.236Z,-6.22
2019-02-05T03:05:35.689Z,-6.14
2019-02-05T03:10:53.401Z,-6.09
2019-02-05T03:16:10.900Z,-6.12
2019-02-05T03:21:28.121Z,-6.19
2019-02-05T03:26:46.019Z,-6.33
2019-02-05T03:32:04.374Z,-6.28
2019-02-05T03:37:22.336Z,-6.41
2019-02-05T03:42:39.870Z,-6.32
2019-02-05T03:47:57.357Z,-6.43
2019-02-05T03:53:15.436Z,-6.49
2019-02-05T03:58:51.586Z,-6.32
2019-02-05T04:04:32.010Z,-6.31
2019-02-05T04:10:08.942Z,-6.35
2019-02-05T04:15:54.885Z,-6.23
2019-02-05T04:21:34.304Z,-6.62
2019-02-05T04:27:09.587Z,-6.79
2019-02-05T04:32:49.743Z,-6.59
2019-02-05T04:38:27.073Z,-6.69
2019-02-05T04:43:58.489Z,-6.74
2019-02-05T04:49:54.546Z,-6.74
2019-02-05T04:55:29.971Z,-6.78
2019-02-05T05:01:17.657Z,-6.87
2019-02-05T05:06:42.720Z,-6.95
2019-02-05T05:12:00.044Z,-6.92
2019-02-05T05:17:17.628Z,-6.91
2019-02-05T05:22:35.560Z,-6.80
2019-02-05T05:27:55.007Z,-6.79
2019-02-05T05:33:12.395Z,-6.83
2019-02-05T05:38:29.672Z,-6.83
2019-02-05T05:43:47.708Z,-6.94
2019-02-05T05:49:05.085Z,-7.06
2019-02-05T05:54:22.191Z,-6.93
2019-02-05T05:59:39.719Z,-6.92
2019-02-05T06:04:57.713Z,-6.76
2019-02-05T06:10:16.194Z,-6.91
2019-02-05T06:15:35.953Z,-6.89
2019-02-05T06:20:52.083Z,-6.89
2019-02-05T06:26:09.497Z,-6.89
2019-02-05T06:31:27.539Z,-6.87
2019-02-05T06:36:44.955Z,-6.85
2019-02-05T06:42:02.171Z,-6.77
2019-02-05T06:47:19.688Z,-6.93
2019-02-05T06:52:36.883Z,-6.87
2019-02-05T06:57:54.187Z,-6.82
2019-02-05T07:03:12.739Z,-6.89
2019-02-05T07:08:30.484Z,-6.74
2019-02-05T07:13:47.999Z,-6.51
2019-02-05T07:19:05.668Z,-6.23
2019-02-05T07:24:23.958Z,-6.02
2019-02-05T07:29:41.741Z,-5.68
2019-02-05T07:34:59.301Z,-5.45
2019-02-05T07:40:17.062Z,-5.30
2019-02-05T07:45:35.567Z,-5.07
2019-02-05T07:50:53.003Z,-4.86
2019-02-05T07:56:12.913Z,-4.62
2019-02-05T08:01:28.447Z,-4.42
2019-02-05T08:06:46.759Z,-4.29
2019-02-05T08:12:04.324Z,-4.21
2019-02-05T08:17:22.425Z,-3.96
2019-02-05T08:22:41.560Z,-3.79
2019-02-05T08:28:00.330Z,-3.60
2019-02-05T08:33:18.151Z,-3.34
2019-02-05T08:38:35.872Z,-3.02
2019-02-05T08:43:53.954Z,-2.75
2019-02-05T08:49:12.040Z,-2.49
2019-02-05T08:54:29.871Z,-2.30
2019-02-05T08:59:47.987Z,-2.23
2019-02-05T09:05:05.621Z,-1.83
2019-02-05T09:10:30.266Z,-1.44
2019-02-05T09:15:47.933Z,-1.08
2019-02-05T09:21:05.256Z,-0.66
2019-02-05T09:26:22.649Z,-0.32
2019-02-05T09:31:40.142Z,-0.32
2019-02-05T09:36:57.985Z,0.24
2019-02-05T09:42:15.396Z,0.66
2019-02-05T09:47:32.968Z,0.97
2019-02-05T09:52:50.149Z,1.23
2019-02-05T09:58:07.941Z,1.49
2019-02-05T10:03:25.418Z,2.01
2019-02-05T10:08:45.726Z,2.36
2019-02-05T10:14:06.240Z,2.48
2019-02-05T10:19:24.840Z,2.79
2019-02-05T10:24:42.974Z,3.32
2019-02-05T10:30:01.445Z,3.75
2019-02-05T10:35:19.836Z,4.12
2019-02-05T10:40:37.265Z,4.78
2019-02-05T10:45:55.219Z,5.17
2019-02-05T10:51:13.482Z,5.34
2019-02-05T10:56:31.549Z,5.64
2019-02-05T11:01:48.694Z,6.30
2019-02-05T11:07:06.449Z,7.56
2019-02-05T11:12:23.973Z,11.56
2019-02-05T11:17:41.499Z,13.76
2019-02-05T11:22:59.032Z,15.38
2019-02-05T11:28:16.694Z,15.31
2019-02-05T11:33:34.241Z,15.48
2019-02-05T11:38:53.470Z,13.60
2019-02-05T11:44:11.072Z,12.61
2019-02-05T11:49:31.061Z,9.95
2019-02-05T11:54:48.578Z,11.35
2019-02-05T12:00:06.961Z,12.11
2019-02-05T12:05:24.112Z,12.44
2019-02-05T12:10:42.774Z,10.77
2019-02-05T12:16:00.765Z,9.29
2019-02-05T12:21:18.262Z,12.50
2019-02-05T12:26:35.539Z,13.59
2019-02-05T12:31:53.980Z,12.49
2019-02-05T12:37:11.610Z,13.29
2019-02-05T12:42:30.729Z,12.08
2019-02-05T12:47:48.222Z,13.41
2019-02-05T12:53:05.889Z,12.54
2019-02-05T12:58:24.233Z,10.04
2019-02-05T13:03:41.764Z,9.00
2019-02-05T13:08:59.835Z,10.03
2019-02-05T13:14:18.181Z,9.91
2019-02-05T13:19:35.868Z,9.04
2019-02-05T13:24:53.248Z,8.58
2019-02-05T13:30:11.617Z,9.62
2019-02-05T13:35:29.478Z,9.65
2019-02-05T13:40:47.530Z,10.89
2019-02-05T13:46:05.897Z,11.39
2019-02-05T13:51:23.297Z,11.63
2019-02-05T13:56:41.126Z,9.58
2019-02-05T14:01:58.528Z,10.93
2019-02-05T14:07:16.326Z,10.87
2019-02-05T14:12:34.056Z,9.03
2019-02-05T14:17:53.149Z,9.72
2019-02-05T14:23:12.901Z,10.40
2019-02-05T14:28:31.116Z,10.63
2019-02-05T14:33:49.709Z,9.09
2019-02-05T14:39:08.881Z,9.16
2019-02-05T14:44:26.614Z,7.65
2019-02-05T14:49:45.068Z,6.74
2019-02-05T14:55:02.823Z,7.45
2019-02-05T15:00:25.117Z,6.54
2019-02-05T15:05:44.298Z,6.03
2019-02-05T15:11:03.879Z,4.86
2019-02-05T15:16:21.870Z,4.19
2019-02-05T15:21:40.130Z,2.93
2019-02-05T15:26:57.939Z,2.83
2019-02-05T15:32:35.408Z,2.45
2019-02-05T15:37:53.598Z,2.20
2019-02-05T15:43:11.015Z,2.08
2019-02-05T15:48:28.718Z,1.85
2019-02-05T15:53:46.680Z,1.87
2019-02-05T15:59:04.801Z,1.58
2019-02-05T16:04:23.147Z,1.21
2019-02-05T16:09:40.927Z,1.12
2019-02-05T16:14:58.670Z,0.67
2019-02-05T16:20:16.970Z,0.65
2019-02-05T16:25:35.597Z,0.44
2019-02-05T16:30:53.605Z,0.36
2019-02-05T16:36:11.255Z,0.10
2019-02-05T16:41:29.168Z,0.09
2019-02-05T16:46:47.649Z,0.08
2019-02-05T16:52:05.666Z,-0.01
2019-02-05T16:57:23.758Z,-0.26
2019-02-05T17:02:42.565Z,-0.43
2019-02-05T17:08:00.121Z,-0.61
2019-02-05T17:13:17.782Z,-0.69
2019-02-05T17:18:36.095Z,-0.93
2019-02-05T17:23:54.972Z,-1.15
2019-02-05T17:29:13.732Z,-1.29
2019-02-05T17:34:31.287Z,-1.58
2019-02-05T17:39:49.933Z,-1.58
2019-02-05T17:45:10.000Z,-1.66
2019-02-05T17:50:28.389Z,-1.92
2019-02-05T17:55:46.466Z,-2.04
2019-02-05T18:01:15.044Z,-2.04
2019-02-05T18:06:34.418Z,-2.14
2019-02-05T18:11:52.362Z,-2.23
2019-02-05T18:17:10.444Z,-2.24
2019-02-05T18:22:29.790Z,-2.31
2019-02-05T18:27:47.783Z,-2.35
2019-02-05T18:33:05.590Z,-2.54
2019-02-05T18:38:22.957Z,-2.55
2019-02-05T18:43:40.801Z,-2.73
2019-02-05T18:49:04.920Z,-2.75
2019-02-05T18:54:18.852Z,-2.84
2019-02-05T18:59:36.825Z,-2.99
2019-02-05T19:04:54.242Z,-2.98
2019-02-05T19:10:13.261Z,-2.96
2019-02-05T19:15:33.431Z,-2.99
2019-02-05T19:20:51.053Z,-3.09
2019-02-05T19:26:12.985Z,-3.27
2019-02-05T19:31:32.264Z,-3.26
2019-02-05T19:36:50.526Z,-3.27
2019-02-05T19:42:09.135Z,-3.31
2019-02-05T19:47:32.202Z,-3.36
2019-02-05T19:52:49.668Z,-3.36
2019-02-05T19:58:09.131Z,-3.52
2019-02-05T20:03:38.114Z,-3.52
2019-02-05T20:08:45.098Z,-3.59
2019-02-05T20:14:03.273Z,-3.68
2019-02-05T20:19:21.272Z,-3.75
2019-02-05T20:24:38.951Z,-4.03
2019-02-05T20:29:57.585Z,-3.96
2019-02-05T20:35:15.229Z,-4.01
2019-02-05T20:40:33.387Z,-4.17
2019-02-05T20:45:52.220Z,-4.27
2019-02-05T20:51:10.523Z,-4.40
2019-02-05T20:56:30.916Z,-4.44
2019-02-05T21:01:46.149Z,-4.47
2019-02-05T21:07:03.917Z,-4.51
2019-02-05T21:12:21.601Z,-4.50
2019-02-05T21:17:40.697Z,-4.48
2019-02-05T21:22:58.874Z,-4.48
2019-02-05T21:28:17.548Z,-4.67
2019-02-05T21:33:35.187Z,-4.84
2019-02-05T21:38:53.342Z,-4.75
2019-02-05T21:44:11.681Z,-4.77
2019-02-05T21:49:30.415Z,-4.76
2019-02-05T21:54:47.850Z,-4.76
2019-02-05T22:00:09.820Z,-4.84
2019-02-05T22:05:28.383Z,-4.85
2019-02-05T22:10:46.612Z,-4.81
2019-02-05T22:16:05.198Z,-4.91
2019-02-05T22:21:22.396Z,-4.97
2019-02-05T22:26:39.522Z,-4.98
2019-02-05T22:31:57.093Z,-5.01
2019-02-05T22:37:14.341Z,-5.22
2019-02-05T22:42:31.943Z,-5.21
2019-02-05T22:47:50.981Z,-5.22
2019-02-05T22:53:08.826Z,-5.34
2019-02-05T22:58:26.105Z,-5.31
2019-02-05T23:03:49.473Z,-5.56
2019-02-05T23:09:20.950Z,-5.48
2019-02-05T23:14:38.129Z,-5.53
2019-02-05T23:19:55.868Z,-5.64
2019-02-05T23:25:13.210Z,-5.62
2019-02-05T23:30:30.774Z,-5.59
2019-02-05T23:35:48.567Z,-5.66
2019-02-05T23:41:06.821Z,-5.72
2019-02-05T23:46:24.300Z,-5.84
2019-02-05T23:51:42.822Z,-5.84
2019-02-05T23:57:00.474Z,-5.82
